Espaço - Ciências - Fenômenos Naturais
Meteógrafos Informações Meteorológicas em tempo real

Aeroporto de Congonhas

Histórico do Tempo
Temperatura atual: 18 graus 64 F    Umidade relativa: 82 %
Velocidade do vento: 05 nós 9 Km/h    Direção: 150 graus SSE
Ajuste do altímetro ..: 1021 HPA
Visibilidade: Péssima    Tempo presente: Quase sem nuvens

Observação

Data Hora BRTTempo°CUmidadePressãoVentoVisib.
22/04 - 23:55   Quase sem nuvens 18° 82% 1021 Sul-sudeste/9 km/h ND
22/04 - 22:55   Quase sem nuvens 18° 82% 1022 Sul-sudeste/9 km/h 7000
22/04 - 20:55   Parcialmente Nublado 19° 82% 1022 Sul-sudeste/12 km/h OK
22/04 - 19:55   Parcialmente Nublado 19° 82% 1021 Sul-sudeste/14 km/h OK
22/04 - 18:55   Parcialmente Nublado 20° 77% 1020 Sul/19 km/h OK
22/04 - 17:55   Parcialmente Nublado 20° 77% 1020 Sul/19 km/h OK
22/04 - 16:55   Não Disponível 22° 68% 1019 Sul-sudeste/23 km/h OK
22/04 - 15:55   Céu Limpo 24° 61% 1019 Sul-sudeste/16 km/h OK
22/04 - 13:55   Céu Limpo 25° 44% 1019 /3 km/h OK
22/04 - 08:55   Céu Limpo 18° 77% 1021 Este-nordeste/7 km/h OK
22/04 - 07:55   Céu Limpo 16° 87% 1020 Leste/5 km/h OK
22/04 - 05:55   Céu Limpo 16° 87% 1019 Este-sudeste/16 km/h OK
22/04 - 04:55   Poucas nuvens esparsas 16° 87% 1019 Este-sudeste/5 km/h ND
22/04 - 03:55   Não Disponível 17° 82% 1019 Leste/5 km/h ND
22/04 - 02:55   Não Disponível 17° 82% 1019 Este-sudeste/5 km/h ND
22/04 - 00:55   Não Disponível 18° 77% 1020 Este-sudeste/9 km/h ND
21/04 - 22:55   Não Disponível 18° 77% 1021 Leste/7 km/h OK
21/04 - 21:55   Poucas nuvens esparsas 18° 77% 1021 Este-sudeste/12 km/h OK
21/04 - 19:55   Muitas Nuvens 18° 82% 1020 Sudeste/12 km/h OK
21/04 - 18:55   Parcialmente Nublado 19° 72% 1020 Sul/19 km/h OK
21/04 - 17:55   Céu Limpo 19° 77% 1019 Sul-sudeste/21 km/h OK
21/04 - 16:55   Céu Limpo 22° 64% 1019 Sul-sudeste/21 km/h OK
21/04 - 15:55   Não Disponível 23° 57% 1019 Sul/18 km/h OK
21/04 - 14:55   Poucas nuvens esparsas 24° 50% 1019 Sul/12 km/h OK


Apolo11.com - Todos os direitos reservados - 2000 - 2018
Política de Privacidade   |     Termo de Uso e Licenciamento   |  -   Entre em Contato

"O segredo do demagogo é se fazer passar por tão estúpido quanto sua platéia, para que esta imagine ser tão esperta quanto ele" - Karl Kraus